Time;durP1;ratioP1;P1;durP2;ratioP2;P2;SDS_P1;SDS_P2;PMS_P1;PMS_P2;Temp;Humidity;BMP_temperature;BMP_pressure;BME280_temperature;BME280_humidity;BME280_pressure;Samples;Min_cycle;Max_cycle;Signal;HPM_P1;HPM_P2
2021/11/14 00:01:50;;;;;;;0.00;0.00;;;;;;;3.65;94.71;99557.63;5110706;28;20088;-77
2021/11/14 00:04:15;;;;;;;0.00;0.00;;;;;;;3.73;94.85;99564.50;5114483;28;20027;-76
2021/11/14 00:06:44;;;;;;;0.00;0.00;;;;;;;3.76;94.84;99571.97;5112906;28;20040;-79
2021/11/14 00:09:12;;;;;;;0.00;0.00;;;;;;;3.72;95.39;99561.00;5113020;28;20038;-75
2021/11/14 00:11:38;;;;;;;0.00;0.00;;;;;;;3.75;95.02;99568.53;5113079;28;20049;-77
2021/11/14 00:14:04;;;;;;;0.00;0.00;;;;;;;3.75;94.51;99567.69;5111989;28;20269;-76
2021/11/14 00:16:30;;;;;;;0.00;0.00;;;;;;;3.74;94.91;99561.63;5112238;28;20031;-77
2021/11/14 00:18:57;;;;;;;0.00;0.00;;;;;;;3.80;94.93;99573.19;5112000;28;20023;-77
2021/11/14 00:21:24;;;;;;;0.00;0.00;;;;;;;3.78;94.75;99568.06;5111738;28;20028;-76
2021/11/14 00:23:50;;;;;;;0.00;0.00;;;;;;;3.82;94.57;99560.50;5112569;28;20066;-77
2021/11/14 00:26:16;;;;;;;0.00;0.00;;;;;;;3.86;94.92;99567.00;5113601;28;20070;-76
2021/11/14 00:28:42;;;;;;;0.00;0.00;;;;;;;3.80;94.68;99550.16;5113637;28;20032;-77
2021/11/14 00:31:19;;;;;;;0.00;0.00;;;;;;;3.81;94.80;99551.78;5112236;28;20023;-76
2021/11/14 00:33:48;;;;;;;0.00;0.00;;;;;;;3.84;94.86;99554.00;5113607;28;20028;-75
2021/11/14 00:36:16;;;;;;;0.00;0.00;;;;;;;3.95;94.88;99562.22;5112539;28;20047;-77
2021/11/14 00:38:44;;;;;;;0.00;0.00;;;;;;;3.97;95.04;99568.91;5113712;28;20032;-76
2021/11/14 00:41:09;;;;;;;0.00;0.00;;;;;;;4.00;94.81;99565.03;5093875;27;20103;-74
2021/11/14 00:43:36;;;;;;;0.00;0.00;;;;;;;4.04;95.21;99568.88;5091913;28;20125;-74
2021/11/14 00:46:07;;;;;;;0.00;0.00;;;;;;;4.03;95.15;99556.66;5092357;28;20048;-74
2021/11/14 00:48:33;;;;;;;0.00;0.00;;;;;;;4.08;95.26;99558.66;5112239;28;20028;-77
2021/11/14 00:51:02;;;;;;;0.00;0.00;;;;;;;4.08;95.18;99559.44;5111856;28;20032;-77
2021/11/14 00:53:28;;;;;;;0.00;0.00;;;;;;;4.14;95.32;99566.50;5111809;28;20088;-76
2021/11/14 00:55:54;;;;;;;0.00;0.00;;;;;;;4.09;95.45;99555.78;5095266;28;20470;-71
2021/11/14 00:58:19;;;;;;;0.00;0.00;;;;;;;4.18;94.98;99564.22;5092795;28;20103;-72
2021/11/14 01:00:45;;;;;;;0.00;0.00;;;;;;;4.23;95.52;99563.56;5092226;28;20115;-71
2021/11/14 01:03:11;;;;;;;0.00;0.00;;;;;;;4.24;95.78;99563.34;5107024;28;20084;-72
2021/11/14 01:05:41;;;;;;;0.00;0.00;;;;;;;4.20;95.83;99546.28;5113011;28;20028;-72
2021/11/14 01:08:09;;;;;;;0.00;0.00;;;;;;;4.31;95.89;99564.06;5112827;28;20028;-71
2021/11/14 01:10:38;;;;;;;0.05;0.05;;;;;;;4.30;95.90;99561.66;5113025;28;20389;-70
2021/11/14 01:13:04;;;;;;;0.00;0.00;;;;;;;4.35;95.36;99563.66;5111062;28;20597;-72
2021/11/14 01:15:30;;;;;;;1.02;1.02;;;;;;;4.40;96.16;99553.19;5112838;28;20036;-72
2021/11/14 01:17:56;;;;;;;0.00;0.00;;;;;;;4.36;95.97;99552.81;5110568;28;20036;-72
2021/11/14 01:20:27;;;;;;;0.00;0.00;;;;;;;4.43;95.79;99560.66;5112495;28;20107;-71
2021/11/14 01:22:54;;;;;;;0.00;0.00;;;;;;;4.43;96.03;99550.06;5111596;28;20032;-72
2021/11/14 01:25:20;;;;;;;0.00;0.00;;;;;;;4.46;95.87;99554.94;5112153;28;20020;-72
2021/11/14 01:27:46;;;;;;;0.10;0.10;;;;;;;4.48;95.87;99548.38;5112496;28;20039;-72
2021/11/14 01:30:21;;;;;;;0.00;0.00;;;;;;;4.51;96.16;99549.78;5112286;28;20489;-71
2021/11/14 01:32:46;;;;;;;0.10;0.10;;;;;;;4.45;96.51;99535.56;5111427;28;20058;-71
2021/11/14 01:35:14;;;;;;;0.00;0.00;;;;;;;4.55;96.24;99550.13;5112342;28;20038;-71
2021/11/14 01:37:42;;;;;;;0.00;0.00;;;;;;;4.54;96.27;99548.53;5112466;27;20034;-72
2021/11/14 01:40:10;;;;;;;0.00;0.00;;;;;;;4.51;96.61;99538.38;5111780;28;20128;-71
2021/11/14 01:42:35;;;;;;;0.00;0.00;;;;;;;4.61;96.42;99558.03;5112027;28;20020;-72
2021/11/14 01:45:01;;;;;;;0.08;0.08;;;;;;;4.44;96.33;99523.41;5111390;28;20043;-71
2021/11/14 01:47:26;;;;;;;0.00;0.00;;;;;;;4.65;96.13;99559.19;5111515;28;20024;-72
2021/11/14 01:49:52;;;;;;;0.65;0.65;;;;;;;4.59;96.13;99546.81;5112166;28;20055;-71
2021/11/14 01:52:23;;;;;;;0.00;0.00;;;;;;;4.69;95.84;99562.19;5092784;28;20114;-72
2021/11/14 01:54:49;;;;;;;0.00;0.00;;;;;;;4.68;95.76;99549.97;5104732;28;20097;-73
2021/11/14 01:57:14;;;;;;;0.00;0.00;;;;;;;4.69;95.55;99554.25;5112161;28;20035;-72
2021/11/14 01:59:40;;;;;;;0.00;0.00;;;;;;;4.69;95.59;99554.25;5111856;28;20066;-73
2021/11/14 02:02:07;;;;;;;0.00;0.00;;;;;;;4.70;95.14;99547.09;5111815;28;20028;-72
2021/11/14 02:04:32;;;;;;;0.00;0.00;;;;;;;4.72;95.04;99545.03;5111589;28;20107;-72
2021/11/14 02:06:57;;;;;;;0.00;0.00;;;;;;;4.69;95.70;99537.53;5110906;28;20110;-72
2021/11/14 02:09:23;;;;;;;0.17;0.17;;;;;;;4.68;95.33;99530.63;5111949;28;20023;-72
2021/11/14 02:11:49;;;;;;;0.00;0.00;;;;;;;4.75;95.34;99541.94;5111642;28;20039;-72
2021/11/14 02:14:14;;;;;;;0.00;0.00;;;;;;;4.76;95.49;99544.38;5112085;28;20032;-71
2021/11/14 02:16:40;;;;;;;0.00;0.00;;;;;;;4.78;95.36;99544.13;5111697;28;20089;-71
2021/11/14 02:19:09;;;;;;;0.00;0.00;;;;;;;4.72;95.33;99529.13;5110252;28;20027;-71
2021/11/14 02:21:35;;;;;;;0.15;0.15;;;;;;;4.74;95.76;99530.53;5110953;28;20042;-71
2021/11/14 02:24:02;;;;;;;0.00;0.00;;;;;;;4.85;95.50;99546.69;5111401;28;20089;-72
2021/11/14 02:26:28;;;;;;;1.75;0.80;;;;;;;4.85;95.53;99546.69;5109857;28;20084;-73
2021/11/14 02:28:54;;;;;;;0.00;0.00;;;;;;;4.88;95.55;99554.19;5111426;28;20106;-72
2021/11/14 02:31:21;;;;;;;0.00;0.00;;;;;;;4.79;95.65;99538.59;5090219;28;20114;-72
2021/11/14 02:33:47;;;;;;;0.00;0.00;;;;;;;4.89;95.77;99553.94;5100934;28;20055;-72
2021/11/14 02:36:12;;;;;;;0.00;0.00;;;;;;;4.81;95.94;99541.03;5095949;28;20073;-72
2021/11/14 02:38:38;;;;;;;0.00;0.00;;;;;;;4.90;95.82;99554.78;5109861;28;20039;-72
2021/11/14 02:41:05;;;;;;;0.00;0.00;;;;;;;4.95;95.64;99553.03;5109547;28;20027;-74
2021/11/14 02:43:32;;;;;;;0.00;0.00;;;;;;;4.96;95.51;99552.00;5110012;28;20093;-73
2021/11/14 02:45:57;;;;;;;0.00;0.00;;;;;;;4.96;95.53;99543.28;5097778;28;20047;-74
2021/11/14 02:48:23;;;;;;;0.00;0.00;;;;;;;4.97;95.36;99548.34;5089820;28;20020;-71
2021/11/14 02:50:52;;;;;;;0.00;0.00;;;;;;;4.90;95.03;99531.72;5111180;28;20031;-71
2021/11/14 02:53:19;;;;;;;0.00;0.00;;;;;;;5.01;95.26;99550.56;5111897;28;20050;-73
2021/11/14 02:55:45;;;;;;;0.00;0.00;;;;;;;4.99;95.55;99548.09;5114423;28;20057;-73
2021/11/14 02:58:11;;;;;;;0.00;0.00;;;;;;;4.93;95.45;99531.28;5113613;28;20068;-72
2021/11/14 03:00:40;;;;;;;0.00;0.00;;;;;;;4.89;94.56;99524.00;5115308;28;20591;-71
2021/11/14 03:03:06;;;;;;;0.28;0.15;;;;;;;5.03;94.66;99543.16;5115343;28;20519;-71
2021/11/14 03:05:32;;;;;;;0.00;0.00;;;;;;;4.98;94.86;99541.22;5097605;28;20070;-74
2021/11/14 03:07:59;;;;;;;0.00;0.00;;;;;;;5.00;95.12;99549.72;5096747;28;20028;-71
2021/11/14 03:10:27;;;;;;;0.00;0.00;;;;;;;4.95;95.28;99536.34;5115065;28;20023;-72
2021/11/14 03:13:19;;;;;;;0.00;0.00;;;;;;;4.99;94.69;99536.69;5112823;28;20035;-72
2021/11/14 03:15:48;;;;;;;0.00;0.00;;;;;;;5.07;95.23;99549.63;5115341;28;20031;-71
2021/11/14 03:18:15;;;;;;;0.00;0.00;;;;;;;5.01;94.66;99535.44;5113250;28;20027;-72
2021/11/14 03:20:43;;;;;;;0.00;0.00;;;;;;;5.05;95.00;99539.25;5104921;28;20028;-71
2021/11/14 03:23:09;;;;;;;0.00;0.00;;;;;;;5.08;94.82;99548.59;5094563;28;20032;-72
2021/11/14 03:25:35;;;;;;;0.00;0.00;;;;;;;4.99;95.11;99531.41;5094511;28;20047;-73
2021/11/14 03:28:02;;;;;;;0.00;0.00;;;;;;;5.04;94.81;99535.00;5108914;28;20035;-71
2021/11/14 03:30:28;;;;;;;0.00;0.00;;;;;;;5.11;94.87;99548.13;5114929;28;20023;-74
2021/11/14 03:32:54;;;;;;;0.00;0.00;;;;;;;5.09;95.17;99548.38;5113394;28;20474;-73
2021/11/14 03:35:22;;;;;;;0.00;0.00;;;;;;;5.02;95.14;99526.47;5114253;28;20080;-71
2021/11/14 03:37:47;;;;;;;0.00;0.00;;;;;;;5.12;95.12;99544.47;5114539;28;20035;-71
2021/11/14 03:40:15;;;;;;;0.15;0.15;;;;;;;5.04;95.02;99526.22;5105222;28;20499;-71
2021/11/14 03:42:41;;;;;;;0.00;0.00;;;;;;;5.04;95.13;99528.88;5104011;28;20045;-71
2021/11/14 03:45:07;;;;;;;0.00;0.00;;;;;;;5.09;95.10;99537.78;5111528;28;20387;-71
2021/11/14 03:47:33;;;;;;;0.00;0.00;;;;;;;5.14;95.30;99547.69;5114467;28;20045;-72
2021/11/14 03:49:58;;;;;;;0.00;0.00;;;;;;;5.11;95.43;99541.00;5112676;28;20530;-71
2021/11/14 03:52:24;;;;;;;0.00;0.00;;;;;;;5.07;95.24;99531.09;5114565;28;20032;-71
2021/11/14 03:54:50;;;;;;;0.25;0.13;;;;;;;5.13;95.17;99536.25;5112175;28;20039;-72
2021/11/14 03:57:15;;;;;;;0.32;0.32;;;;;;;5.18;95.06;99550.69;5107739;28;20067;-74
2021/11/14 03:59:41;;;;;;;0.00;0.00;;;;;;;5.17;94.74;99549.88;5113817;28;20028;-72
2021/11/14 04:02:06;;;;;;;0.00;0.00;;;;;;;5.16;95.80;99537.66;5112822;28;20035;-72
2021/11/14 04:04:32;;;;;;;0.00;0.00;;;;;;;5.12;95.37;99534.66;5095380;28;20028;-73
2021/11/14 04:06:58;;;;;;;0.10;0.10;;;;;;;5.16;95.22;99539.50;5106341;28;20034;-73
2021/11/14 04:09:23;;;;;;;0.00;0.00;;;;;;;5.19;95.71;99545.16;5112927;28;20023;-73
2021/11/14 04:11:49;;;;;;;0.00;0.00;;;;;;;5.12;95.23;99525.91;5112901;28;20509;-74
2021/11/14 04:14:15;;;;;;;0.00;0.00;;;;;;;5.11;95.69;99530.41;5111699;28;20047;-74
2021/11/14 04:16:41;;;;;;;0.43;0.43;;;;;;;5.13;95.83;99530.16;5112390;28;20027;-73
2021/11/14 04:19:06;;;;;;;0.00;0.00;;;;;;;5.21;95.37;99540.44;5101981;28;20032;-72
2021/11/14 04:21:32;;;;;;;0.00;0.00;;;;;;;5.18;96.00;99537.44;5095802;28;20423;-72
2021/11/14 04:23:57;;;;;;;0.00;0.00;;;;;;;5.22;95.90;99543.91;5106657;28;20028;-74
2021/11/14 04:26:23;;;;;;;0.00;0.00;;;;;;;5.13;95.95;99516.91;5105632;28;20031;-71
2021/11/14 04:28:49;;;;;;;0.00;0.00;;;;;;;5.12;96.10;99524.03;5113142;28;20039;-71
2021/11/14 04:31:14;;;;;;;0.05;0.05;;;;;;;5.12;96.60;99525.91;5111761;28;20035;-72
2021/11/14 04:33:40;;;;;;;0.20;0.15;;;;;;;5.19;96.63;99531.91;5113778;28;20042;-73
2021/11/14 04:36:05;;;;;;;0.43;0.43;;;;;;;5.24;96.17;99539.97;5104573;28;20445;-74
2021/11/14 04:38:31;;;;;;;0.00;0.00;;;;;;;5.22;96.48;99525.34;5106989;28;20035;-74
2021/11/14 04:40:58;;;;;;;0.00;0.00;;;;;;;5.25;96.76;99524.88;5113100;28;20035;-74
2021/11/14 04:43:24;;;;;;;0.00;0.00;;;;;;;5.22;96.67;99517.38;5111785;28;20028;-75
2021/11/14 04:45:51;;;;;;;0.00;0.00;;;;;;;5.28;96.56;99522.59;5113164;27;20078;-74
2021/11/14 04:48:18;;;;;;;0.30;0.30;;;;;;;5.32;96.68;99533.53;5111545;28;20088;-74
2021/11/14 04:50:44;;;;;;;0.00;0.00;;;;;;;5.31;96.39;99529.28;5113090;28;20101;-74
2021/11/14 04:53:10;;;;;;;0.00;0.00;;;;;;;5.33;96.48;99531.69;5111629;28;20047;-76
2021/11/14 04:55:37;;;;;;;0.00;0.00;;;;;;;5.37;96.90;99532.84;5111533;28;20039;-72
2021/11/14 04:58:04;;;;;;;0.00;0.00;;;;;;;5.37;96.48;99532.84;5112287;28;20046;-71
2021/11/14 05:00:38;;;;;;;0.00;0.00;;;;;;;5.39;96.35;99534.22;5113256;28;20093;-72
2021/11/14 05:03:04;;;;;;;0.10;0.10;;;;;;;5.32;96.65;99522.91;5112618;28;20031;-74
2021/11/14 05:05:30;;;;;;;0.10;0.10;;;;;;;5.34;96.12;99512.09;5111546;28;20023;-71
2021/11/14 05:07:55;;;;;;;0.00;0.00;;;;;;;5.39;96.48;99526.25;5112907;28;20084;-71
2021/11/14 05:10:21;;;;;;;0.00;0.00;;;;;;;5.43;96.32;99530.09;5111940;28;20421;-72
2021/11/14 05:12:46;;;;;;;0.00;0.00;;;;;;;5.48;96.16;99537.38;5110857;28;20032;-72
2021/11/14 05:15:12;;;;;;;0.00;0.00;;;;;;;5.43;95.91;99530.09;5090437;28;20031;-74
2021/11/14 05:17:37;;;;;;;0.00;0.00;;;;;;;5.45;95.88;99529.84;5092395;28;20024;-74
2021/11/14 05:20:04;;;;;;;0.00;0.00;;;;;;;5.41;96.43;99521.53;5092200;28;20036;-71
2021/11/14 05:22:30;;;;;;;0.17;0.17;;;;;;;5.53;96.07;99540.13;5091074;28;20028;-71
2021/11/14 05:24:55;;;;;;;0.00;0.00;;;;;;;5.53;95.69;99547.25;5107144;28;20028;-72
2021/11/14 05:27:21;;;;;;;0.65;0.65;;;;;;;5.44;96.23;99526.41;5111438;28;20038;-75
2021/11/14 05:29:47;;;;;;;0.00;0.00;;;;;;;5.56;96.47;99554.78;5111368;28;20019;-71
2021/11/14 05:32:12;;;;;;;0.05;0.05;;;;;;;5.49;96.13;99538.16;5112169;28;20035;-72
2021/11/14 05:34:38;;;;;;;0.00;0.00;;;;;;;5.54;96.23;99554.19;5111859;28;20035;-71
2021/11/14 05:37:03;;;;;;;0.00;0.00;;;;;;;5.52;96.18;99546.47;5111038;28;20034;-74
2021/11/14 05:39:29;;;;;;;0.00;0.00;;;;;;;5.57;96.02;99553.75;5111006;28;20179;-73
2021/11/14 05:41:55;;;;;;;0.10;0.10;;;;;;;5.61;95.93;99561.03;5112086;28;20032;-74
2021/11/14 05:44:20;;;;;;;0.63;0.63;;;;;;;5.55;96.53;99558.47;5110318;28;20615;-75
2021/11/14 05:46:45;;;;;;;0.00;0.00;;;;;;;5.56;96.58;99557.44;5110781;28;20039;-76
2021/11/14 05:49:13;;;;;;;0.00;0.00;;;;;;;5.58;96.46;99561.47;5110809;28;20035;-74
2021/11/14 05:51:38;;;;;;;0.17;0.17;;;;;;;5.67;96.41;99574.41;5112311;28;20439;-73
2021/11/14 05:54:05;;;;;;;0.00;0.00;;;;;;;5.68;96.48;99573.38;5111745;28;20066;-72
2021/11/14 05:56:30;;;;;;;0.90;0.90;;;;;;;5.71;95.88;99576.38;5112182;28;20035;-72
2021/11/14 05:59:27;;;;;;;0.10;0.10;;;;;;;5.72;96.59;99579.81;5111962;28;20035;-74
2021/11/14 06:01:46;;;;;;;0.52;0.52;;;;;;;5.70;96.89;99569.44;5111257;28;20030;-73
2021/11/14 06:04:24;;;;;;;0.00;0.00;;;;;;;5.75;96.70;99574.06;5111838;28;20023;-74
2021/11/14 06:06:50;;;;;;;0.32;0.32;;;;;;;5.83;96.30;99588.81;5110728;28;20106;-74
2021/11/14 06:09:15;;;;;;;0.10;0.10;;;;;;;5.86;96.42;99583.88;5111771;28;20031;-73
2021/11/14 06:11:41;;;;;;;0.00;0.00;;;;;;;5.86;96.60;99586.50;5111960;28;20486;-74
2021/11/14 06:14:06;;;;;;;0.00;0.00;;;;;;;5.90;96.07;99590.31;5111177;28;20403;-74
2021/11/14 06:16:32;;;;;;;0.00;0.00;;;;;;;5.92;95.96;99593.56;5111562;28;20110;-75
2021/11/14 06:18:57;;;;;;;0.00;0.00;;;;;;;5.96;95.61;99599.22;5110616;28;20026;-74
2021/11/14 06:21:24;;;;;;;0.00;0.00;;;;;;;5.98;95.88;99591.00;5111638;28;20032;-74
2021/11/14 06:23:53;;;;;;;0.10;0.10;;;;;;;6.03;95.80;99586.66;5111636;28;20035;-74
2021/11/14 06:26:19;;;;;;;0.30;0.30;;;;;;;6.04;96.12;99588.28;5110117;28;20031;-74
2021/11/14 06:28:45;;;;;;;0.10;0.10;;;;;;;6.13;95.64;99596.69;5109878;28;20482;-73
2021/11/14 06:31:10;;;;;;;0.00;0.00;;;;;;;6.09;96.03;99583.06;5110172;28;20032;-75
2021/11/14 06:33:36;;;;;;;4.65;0.95;;;;;;;6.20;95.30;99604.50;5111494;28;20605;-74
2021/11/14 06:36:02;;;;;;;0.10;0.10;;;;;;;6.26;95.91;99608.91;5111869;28;20543;-70
2021/11/14 06:38:27;;;;;;;0.00;0.00;;;;;;;6.25;95.27;99599.34;5111319;28;20478;-72
2021/11/14 06:40:53;;;;;;;0.00;0.00;;;;;;;6.29;95.40;99597.81;5106549;28;20036;-73
2021/11/14 06:43:18;;;;;;;0.17;0.17;;;;;;;6.27;95.34;99591.13;5110998;28;20063;-72
2021/11/14 06:45:44;;;;;;;0.40;0.40;;;;;;;6.19;95.05;99573.69;5110031;28;20175;-72
2021/11/14 06:48:10;;;;;;;0.43;0.43;;;;;;;6.38;94.80;99595.59;5109188;28;20031;-74
2021/11/14 06:50:35;;;;;;;0.03;0.03;;;;;;;6.43;95.32;99597.56;5110076;28;20036;-74
2021/11/14 06:53:01;;;;;;;0.00;0.00;;;;;;;6.47;94.58;99604.00;5111008;28;20035;-75
2021/11/14 06:55:26;;;;;;;0.00;0.00;;;;;;;6.39;94.39;99586.59;5111145;28;20027;-74
2021/11/14 06:57:52;;;;;;;0.65;0.65;;;;;;;6.46;94.06;99589.94;5109401;28;20034;-74
2021/11/14 07:00:20;;;;;;;0.00;0.00;;;;;;;6.47;94.36;99583.56;5111505;28;20030;-73
2021/11/14 07:02:46;;;;;;;0.00;0.00;;;;;;;6.55;94.69;99599.16;5102257;28;20044;-74
2021/11/14 07:05:12;;;;;;;0.00;0.00;;;;;;;6.55;94.04;99580.56;5089375;28;20068;-73
2021/11/14 07:07:38;;;;;;;0.65;0.55;;;;;;;6.67;93.76;99606.28;5090917;28;20036;-75
2021/11/14 07:10:06;;;;;;;0.00;0.00;;;;;;;6.67;94.06;99593.00;5091345;28;20098;-75
2021/11/14 07:12:32;;;;;;;0.00;0.00;;;;;;;6.69;93.59;99594.38;5091686;28;20119;-74
2021/11/14 07:14:57;;;;;;;0.00;0.00;;;;;;;6.68;93.33;99587.44;5104426;28;20051;-75
2021/11/14 07:17:25;;;;;;;0.00;0.00;;;;;;;6.77;93.31;99593.16;5105834;28;20023;-73
2021/11/14 07:19:50;;;;;;;0.00;0.00;;;;;;;6.74;92.46;99585.69;5101491;28;20032;-74
2021/11/14 07:22:16;;;;;;;0.00;0.00;;;;;;;6.82;92.27;99589.81;5089964;28;20020;-72
2021/11/14 07:24:41;;;;;;;0.00;0.00;;;;;;;6.83;92.43;99588.75;5090702;28;20471;-74
2021/11/14 07:27:07;;;;;;;0.00;0.00;;;;;;;6.79;92.25;99585.78;5109317;28;20030;-75
2021/11/14 07:29:33;;;;;;;0.00;0.00;;;;;;;6.92;92.21;99597.16;5105691;28;20110;-77
2021/11/14 07:31:58;;;;;;;0.10;0.10;;;;;;;6.94;91.75;99598.53;5108916;28;20027;-77
2021/11/14 07:34:23;;;;;;;0.00;0.00;;;;;;;6.99;91.69;99603.94;5105341;28;20097;-77
2021/11/14 07:36:49;;;;;;;0.00;0.00;;;;;;;7.04;91.21;99603.22;5092066;28;20176;-77
2021/11/14 07:39:14;;;;;;;0.10;0.10;;;;;;;7.06;91.26;99603.81;5107332;28;20027;-77
2021/11/14 07:41:40;;;;;;;0.10;0.10;;;;;;;7.06;91.27;99606.47;5110171;28;20023;-76
2021/11/14 07:44:06;;;;;;;0.00;0.00;;;;;;;7.08;91.44;99606.22;5110659;28;20042;-75
2021/11/14 07:46:31;;;;;;;0.00;0.00;;;;;;;7.11;90.63;99609.22;5112796;28;20039;-74
2021/11/14 07:48:57;;;;;;;0.00;0.00;;;;;;;7.16;91.12;99619.13;5104811;28;20110;-79
2021/11/14 07:51:23;;;;;;;0.00;0.00;;;;;;;7.19;90.58;99618.69;5092831;28;20028;-80
2021/11/14 07:53:48;;;;;;;0.00;0.00;;;;;;;7.16;89.87;99608.50;5108222;28;20064;-78
2021/11/14 07:56:14;;;;;;;0.05;0.05;;;;;;;7.20;89.80;99612.28;5112587;28;20031;-79
2021/11/14 07:58:41;;;;;;;0.00;0.00;;;;;;;7.20;89.33;99609.63;5113238;28;20068;-81
2021/11/14 08:01:06;;;;;;;1.08;1.00;;;;;;;7.22;89.63;99618.19;5114074;28;20043;-80
2021/11/14 08:03:32;;;;;;;0.10;0.10;;;;;;;7.22;89.91;99610.19;5113157;28;20027;-80
2021/11/14 08:06:02;;;;;;;0.00;0.00;;;;;;;7.28;89.35;99613.78;5112477;28;20031;-76
2021/11/14 08:08:28;;;;;;;0.10;0.10;;;;;;;7.27;89.18;99612.16;5112429;28;20111;-76
2021/11/14 08:10:54;;;;;;;0.00;0.00;;;;;;;7.28;88.30;99617.22;5114276;28;20059;-76
2021/11/14 08:13:20;;;;;;;0.55;0.55;;;;;;;7.28;87.86;99616.44;5113984;28;20059;-74
2021/11/14 08:15:46;;;;;;;0.00;0.00;;;;;;;7.32;88.29;99617.56;5112990;28;20039;-76
2021/11/14 08:18:11;;;;;;;0.17;0.17;;;;;;;7.28;88.63;99606.56;5112151;28;20040;-75
2021/11/14 08:20:37;;;;;;;0.10;0.10;;;;;;;7.39;88.45;99620.06;5113565;28;20019;-76
2021/11/14 08:23:04;;;;;;;0.00;0.00;;;;;;;7.39;87.84;99618.22;5102401;28;20403;-77
2021/11/14 08:25:29;;;;;;;0.00;0.00;;;;;;;7.35;87.72;99619.75;5103527;28;20027;-77
2021/11/14 08:27:55;;;;;;;0.35;0.35;;;;;;;7.37;87.61;99613.13;5091545;28;20392;-77
2021/11/14 08:30:21;;;;;;;0.00;0.00;;;;;;;7.40;87.52;99613.69;5094103;28;20050;-78
2021/11/14 08:32:48;;;;;;;0.00;0.00;;;;;;;7.40;87.57;99614.50;5091224;28;20077;-74
2021/11/14 08:35:14;;;;;;;0.00;0.00;;;;;;;7.35;86.87;99604.56;5092162;28;20089;-75
2021/11/14 08:37:39;;;;;;;1.17;0.98;;;;;;;7.39;87.10;99612.88;5096204;28;20028;-78
2021/11/14 08:40:08;;;;;;;0.10;0.10;;;;;;;7.42;86.86;99614.25;5094059;28;20548;-79
2021/11/14 08:42:33;;;;;;;;;;;;;;;7.47;87.48;99619.66;5091523;28;20761;-75
2021/11/14 08:44:59;;;;;;;0.00;0.00;;;;;;;7.44;87.04;99612.97;5097980;28;19920;-79
2021/11/14 08:47:24;;;;;;;0.00;0.00;;;;;;;7.43;87.38;99611.34;5092140;28;20020;-75
2021/11/14 08:49:50;;;;;;;0.25;0.25;;;;;;;7.47;87.06;99607.16;5098585;28;20035;-80
2021/11/14 08:52:16;;;;;;;0.22;0.22;;;;;;;7.51;87.19;99612.81;5111313;28;20028;-75
2021/11/14 08:54:42;;;;;;;0.10;0.10;;;;;;;7.52;87.32;99598.47;5110552;28;20034;-83
2021/11/14 08:57:09;;;;;;;0.00;0.00;;;;;;;7.57;87.33;99603.88;5111762;28;20478;-79
2021/11/14 08:59:35;;;;;;;0.20;0.20;;;;;;;7.61;87.22;99602.31;5112138;28;20051;-75
2021/11/14 09:02:02;;;;;;;0.00;0.00;;;;;;;7.59;86.84;99591.13;5112001;28;20081;-84
2021/11/14 09:04:29;;;;;;;0.00;0.00;;;;;;;7.68;87.12;99602.16;5112327;28;20088;-83
2021/11/14 09:06:55;;;;;;;0.00;0.00;;;;;;;7.68;86.98;99584.31;5110693;28;20118;-77
2021/11/14 09:09:22;;;;;;;0.00;0.00;;;;;;;7.76;86.51;99588.44;5110968;28;20034;-86
2021/11/14 09:11:49;;;;;;;0.20;0.20;;;;;;;7.70;86.08;99578.75;5110035;28;20028;-77
2021/11/14 09:14:15;;;;;;;0.00;0.00;;;;;;;7.67;86.05;99573.94;5102001;28;20035;-74
2021/11/14 09:16:42;;;;;;;1.77;1.65;;;;;;;7.71;85.86;99585.69;5112582;28;20032;-73
2021/11/14 09:19:08;;;;;;;0.05;0.05;;;;;;;7.72;86.03;99578.53;5110905;28;20027;-75
2021/11/14 09:21:37;;;;;;;0.60;0.60;;;;;;;7.71;85.89;99575.06;5110924;28;20019;-75
2021/11/14 09:24:02;;;;;;;4.30;1.23;;;;;;;7.75;85.59;99570.88;5109397;28;20050;-75
2021/11/14 09:26:28;;;;;;;0.00;0.00;;;;;;;7.76;85.93;99572.44;5110763;28;20487;-76
2021/11/14 09:28:53;;;;;;;0.28;0.28;;;;;;;7.78;85.88;99572.22;5105065;28;20466;-76
2021/11/14 09:31:19;;;;;;;0.00;0.00;;;;;;;7.75;85.54;99554.06;5090492;28;20201;-73
2021/11/14 09:33:45;;;;;;;0.00;0.00;;;;;;;7.83;85.20;99558.97;5097232;28;20027;-75
2021/11/14 09:36:11;;;;;;;1.00;1.00;;;;;;;7.81;85.38;99561.06;5105117;27;20024;-75
2021/11/14 09:38:38;;;;;;;0.40;0.40;;;;;;;7.88;85.22;99564.38;5112090;28;20073;-76
2021/11/14 09:41:06;;;;;;;0.20;0.20;;;;;;;7.91;85.52;99560.41;5110027;28;20019;-75
2021/11/14 09:43:32;;;;;;;;;;;;;;;7.99;85.01;99560.78;5107925;28;20116;-75
2021/11/14 09:45:59;;;;;;;0.05;0.05;;;;;;;8.01;85.08;99555.25;5110740;28;19963;-74
2021/11/14 09:48:26;;;;;;;0.00;0.00;;;;;;;8.02;85.02;99556.84;5077359;28;20059;-76
2021/11/14 09:50:56;;;;;;;0.00;0.00;;;;;;;8.01;84.41;99549.91;5109754;28;20479;-75
2021/11/14 09:53:26;;;;;;;0.00;0.00;;;;;;;8.08;84.72;99555.88;5104347;28;20035;-73
2021/11/14 09:55:51;;;;;;;2.17;0.80;;;;;;;8.07;84.75;99548.09;5109581;28;20070;-76
2021/11/14 09:58:17;;;;;;;0.00;0.00;;;;;;;8.03;84.55;99534.47;5104733;28;20098;-76
2021/11/14 10:00:42;;;;;;;0.10;0.10;;;;;;;8.08;84.44;99542.56;5109045;28;20027;-75
2021/11/14 10:03:09;;;;;;;0.00;0.00;;;;;;;8.10;84.19;99547.63;5110169;28;20028;-74
2021/11/14 10:05:37;;;;;;;0.00;0.00;;;;;;;8.06;84.70;99543.84;5109794;28;20027;-74
2021/11/14 10:08:05;;;;;;;0.00;0.00;;;;;;;8.12;84.12;99548.19;5110455;28;20027;-76
2021/11/14 10:10:36;;;;;;;0.08;0.08;;;;;;;8.15;84.25;99553.00;5110049;28;20055;-75
2021/11/14 10:13:28;;;;;;;0.00;0.00;;;;;;;8.20;83.76;99544.28;5109915;28;20036;-77
2021/11/14 10:16:09;;;;;;;0.13;0.13;;;;;;;8.21;83.55;99541.34;5104344;28;20030;-77
2021/11/14 10:18:35;;;;;;;0.20;0.20;;;;;;;8.27;83.29;99537.69;5091359;28;20510;-76
2021/11/14 10:21:02;;;;;;;0.05;0.05;;;;;;;8.24;82.97;99538.22;5110125;28;20065;-74
2021/11/14 10:23:33;;;;;;;0.47;0.47;;;;;;;8.31;83.68;99538.00;5109052;28;20475;-75
2021/11/14 10:26:04;;;;;;;0.00;0.00;;;;;;;8.32;83.58;99529.78;5110265;28;20027;-75
2021/11/14 10:28:30;;;;;;;0.00;0.00;;;;;;;8.36;83.49;99530.09;5092749;28;20040;-76
2021/11/14 10:30:56;;;;;;;0.00;0.00;;;;;;;8.42;83.18;99536.28;5109407;28;20031;-76
2021/11/14 10:33:23;;;;;;;0.00;0.00;;;;;;;8.42;83.72;99526.44;5096886;28;20107;-75
2021/11/14 10:35:51;;;;;;;0.00;0.00;;;;;;;8.44;83.08;99526.97;5107472;28;20081;-75
2021/11/14 10:38:20;;;;;;;0.15;0.15;;;;;;;8.52;82.71;99536.44;5109250;28;20019;-77
2021/11/14 10:40:49;;;;;;;0.00;0.00;;;;;;;8.57;82.40;99533.81;5109224;28;20139;-79
2021/11/14 10:43:18;;;;;;;0.00;0.00;;;;;;;8.62;82.21;99531.19;5099645;28;20043;-78
2021/11/14 10:45:44;;;;;;;0.10;0.10;;;;;;;8.65;82.04;99541.38;5108680;28;20116;-75
2021/11/14 10:48:16;;;;;;;0.25;0.25;;;;;;;8.70;82.11;99535.25;5094369;28;20476;-75
2021/11/14 10:50:57;;;;;;;0.00;0.00;;;;;;;8.71;81.92;99522.75;5091048;28;20088;-75
2021/11/14 10:53:26;;;;;;;0.00;0.00;;;;;;;8.72;81.50;99522.50;5090700;28;20036;-75
2021/11/14 10:55:54;;;;;;;0.00;0.00;;;;;;;8.82;80.71;99532.47;5094594;28;20030;-75
2021/11/14 10:58:22;;;;;;;0.00;0.00;;;;;;;8.81;81.22;99530.84;5111137;28;20039;-73
2021/11/14 11:00:51;;;;;;;0.00;0.00;;;;;;;8.78;80.46;99521.47;5111217;28;20035;-73
2021/11/14 11:03:17;;;;;;;0.00;0.00;;;;;;;8.87;80.34;99534.38;5111099;28;20049;-74
2021/11/14 11:05:44;;;;;;;0.00;0.00;;;;;;;8.80;80.20;99513.22;5110960;28;20475;-73
2021/11/14 11:08:19;;;;;;;0.20;0.20;;;;;;;8.72;80.62;99501.16;5109578;28;20062;-73
2021/11/14 11:10:47;;;;;;;0.00;0.00;;;;;;;8.76;80.73;99509.47;5110676;28;20032;-75
2021/11/14 11:13:30;;;;;;;0.00;0.00;;;;;;;8.80;80.99;99508.72;5109644;28;20028;-73
2021/11/14 11:15:56;;;;;;;0.00;0.00;;;;;;;8.84;80.82;99505.53;5094859;28;20135;-74
2021/11/14 11:18:22;;;;;;;0.00;0.00;;;;;;;8.81;80.49;99504.16;5093329;28;20060;-74
2021/11/14 11:20:57;;;;;;;0.00;0.00;;;;;;;8.77;80.32;99495.88;5113811;28;20122;-76
2021/11/14 11:23:24;;;;;;;0.08;0.08;;;;;;;8.84;80.72;99502.84;5113618;28;20406;-73
2021/11/14 11:25:55;;;;;;;0.63;0.63;;;;;;;8.91;80.80;99495.44;5113660;28;20470;-74
2021/11/14 11:28:36;;;;;;;1.20;0.52;;;;;;;8.84;80.83;99481.53;5114725;28;20024;-73
2021/11/14 11:31:08;;;;;;;0.25;0.25;;;;;;;8.91;80.32;99495.44;5112215;28;20549;-74
2021/11/14 11:33:39;;;;;;;0.00;0.00;;;;;;;8.93;80.23;99498.69;5113756;27;20019;-74
2021/11/14 11:36:07;;;;;;;0.20;0.20;;;;;;;8.90;79.88;99493.84;5114766;28;20024;-74
2021/11/14 11:38:35;;;;;;;0.00;0.00;;;;;;;8.91;79.97;99496.28;5114794;28;20108;-74
2021/11/14 11:41:01;;;;;;;0.10;0.10;;;;;;;8.97;80.28;99502.44;5113353;28;20027;-77